createdAt,value
2022-12-23T00:01:52.536Z,6.17
2022-12-23T00:04:19.645Z,6.15
2022-12-23T00:07:07.182Z,6.11
2022-12-23T00:09:34.642Z,6.12
2022-12-23T00:12:20.540Z,6.11
2022-12-23T00:15:05.978Z,6.11
2022-12-23T00:17:40.651Z,6.10
2022-12-23T00:20:12.319Z,6.08
2022-12-23T00:22:59.083Z,6.06
2022-12-23T00:25:43.353Z,6.04
2022-12-23T00:28:27.809Z,6.04
2022-12-23T00:31:06.272Z,6.06
2022-12-23T00:33:35.620Z,6.04
2022-12-23T00:36:22.928Z,6.02
2022-12-23T00:39:37.832Z,6.01
2022-12-23T00:42:23.539Z,5.99
2022-12-23T00:44:50.439Z,5.99
2022-12-23T00:47:35.940Z,5.99
2022-12-23T00:50:02.966Z,5.99
2022-12-23T00:52:29.861Z,5.99
2022-12-23T00:58:12.817Z,6.00
2022-12-23T01:01:02.896Z,6.00
2022-12-23T01:03:52.050Z,6.01
2022-12-23T01:06:19.705Z,6.03
2022-12-23T01:08:46.517Z,6.03
2022-12-23T01:11:13.228Z,6.01
2022-12-23T01:13:39.975Z,6.00
2022-12-23T01:16:16.895Z,5.99
2022-12-23T01:18:49.207Z,6.00
2022-12-23T01:21:16.618Z,6.02
2022-12-23T01:23:44.026Z,6.05
2022-12-23T01:26:11.425Z,6.03
2022-12-23T01:28:38.488Z,6.02
2022-12-23T01:31:10.007Z,6.00
2022-12-23T01:33:37.301Z,6.02
2022-12-23T01:36:06.866Z,6.03
2022-12-23T01:38:35.236Z,6.03
2022-12-23T01:41:02.578Z,6.03
2022-12-23T01:43:51.244Z,6.02
2022-12-23T01:46:23.386Z,6.01
2022-12-23T01:48:53.251Z,5.94
2022-12-23T01:51:28.505Z,5.97
2022-12-23T01:54:00.708Z,5.97
2022-12-23T01:56:35.138Z,5.97
2022-12-23T01:59:32.032Z,5.97
2022-12-23T02:02:18.258Z,5.93
2022-12-23T02:04:46.457Z,5.95
2022-12-23T02:07:32.572Z,5.93
2022-12-23T02:09:59.404Z,5.93
2022-12-23T02:12:35.135Z,5.95
2022-12-23T02:15:47.966Z,5.96
2022-12-23T02:18:29.900Z,5.94
2022-12-23T02:21:16.528Z,5.92
2022-12-23T02:24:14.338Z,5.89
2022-12-23T02:26:53.860Z,5.85
2022-12-23T02:29:29.790Z,5.83
2022-12-23T02:32:16.267Z,5.85
2022-12-23T02:35:08.808Z,5.87
2022-12-23T02:38:01.955Z,5.91
2022-12-23T02:41:14.965Z,5.90
2022-12-23T02:43:47.125Z,5.88
2022-12-23T02:46:19.686Z,5.87
2022-12-23T02:48:54.345Z,5.86
2022-12-23T02:51:27.105Z,5.87
2022-12-23T02:54:00.589Z,5.87
2022-12-23T02:56:31.894Z,5.87
2022-12-23T02:59:08.168Z,5.86
2022-12-23T03:01:36.826Z,5.85
2022-12-23T03:04:06.669Z,5.84
2022-12-23T03:06:42.721Z,5.84
2022-12-23T03:09:21.170Z,5.84
2022-12-23T03:12:01.731Z,5.85
2022-12-23T03:14:35.859Z,5.85
2022-12-23T03:17:11.614Z,5.83
2022-12-23T03:19:53.847Z,5.80
2022-12-23T03:22:37.248Z,5.79
2022-12-23T03:25:40.057Z,5.78
2022-12-23T03:28:23.806Z,5.79
2022-12-23T03:30:54.585Z,5.80
2022-12-23T03:33:47.357Z,5.79
2022-12-23T03:36:28.063Z,5.77
2022-12-23T03:38:56.520Z,5.78
2022-12-23T03:41:30.119Z,5.78
2022-12-23T03:44:11.498Z,5.79
2022-12-23T03:46:49.859Z,5.81
2022-12-23T03:49:25.573Z,5.82
2022-12-23T03:51:59.279Z,5.81
2022-12-23T03:54:33.388Z,5.80
2022-12-23T03:57:04.929Z,5.78
2022-12-23T03:59:36.002Z,5.81
2022-12-23T04:02:12.058Z,5.82
2022-12-23T04:04:50.117Z,5.82
2022-12-23T04:07:38.983Z,5.84
2022-12-23T04:10:07.832Z,5.83
2022-12-23T04:12:35.642Z,5.82
2022-12-23T04:15:04.931Z,5.81
2022-12-23T04:17:36.171Z,5.79
2022-12-23T04:20:03.560Z,5.79
2022-12-23T04:22:30.311Z,5.78
2022-12-23T04:24:57.114Z,5.77
2022-12-23T04:27:23.857Z,5.75
2022-12-23T04:29:50.535Z,5.73
2022-12-23T04:32:17.955Z,5.73
2022-12-23T04:34:44.668Z,5.73
2022-12-23T04:37:11.391Z,5.74
2022-12-23T04:39:38.097Z,5.74
2022-12-23T04:42:05.016Z,5.73
2022-12-23T04:44:31.762Z,5.71
2022-12-23T04:46:58.540Z,5.69
2022-12-23T04:49:25.445Z,5.69
2022-12-23T04:51:52.131Z,5.68
2022-12-23T04:54:19.011Z,5.68
2022-12-23T04:56:45.785Z,5.68
2022-12-23T04:59:12.738Z,5.67
2022-12-23T05:01:41.506Z,5.66
2022-12-23T05:04:09.380Z,5.63
2022-12-23T05:06:36.942Z,5.62
2022-12-23T05:09:04.533Z,5.63
2022-12-23T05:11:35.922Z,5.65
2022-12-23T05:14:05.566Z,5.66
2022-12-23T05:16:33.392Z,5.67
2022-12-23T05:19:00.223Z,5.65
2022-12-23T05:21:27.006Z,5.63
2022-12-23T05:23:54.479Z,5.63
2022-12-23T05:26:23.701Z,5.64
2022-12-23T05:28:50.466Z,5.66
2022-12-23T05:31:18.008Z,5.69
2022-12-23T05:33:44.750Z,5.68
2022-12-23T05:36:12.048Z,5.66
2022-12-23T05:38:39.245Z,5.66
2022-12-23T05:41:06.254Z,5.66
2022-12-23T05:43:33.292Z,5.69
2022-12-23T05:46:00.213Z,5.73
2022-12-23T05:48:27.003Z,5.74
2022-12-23T05:50:53.839Z,5.73
2022-12-23T05:53:20.960Z,5.74
2022-12-23T05:55:48.043Z,5.73
2022-12-23T05:58:15.253Z,5.73
2022-12-23T06:00:42.676Z,5.72
2022-12-23T06:03:10.238Z,5.71
2022-12-23T06:05:39.263Z,5.73
2022-12-23T06:08:06.060Z,5.72
2022-12-23T06:10:32.822Z,5.70
2022-12-23T06:12:59.595Z,5.69
2022-12-23T06:15:26.445Z,5.68
2022-12-23T06:17:55.268Z,5.68
2022-12-23T06:20:22.150Z,5.70
2022-12-23T06:22:49.103Z,5.68
2022-12-23T06:25:16.033Z,5.68
2022-12-23T06:27:42.812Z,5.68
2022-12-23T06:30:09.887Z,5.69
2022-12-23T06:32:38.795Z,5.71
2022-12-23T06:35:07.731Z,5.73
2022-12-23T06:37:34.654Z,5.73
2022-12-23T06:40:01.678Z,5.75
2022-12-23T06:42:28.430Z,5.74
2022-12-23T06:44:55.147Z,5.72
2022-12-23T06:47:21.911Z,5.72
2022-12-23T06:49:48.710Z,5.72
2022-12-23T06:52:15.517Z,5.75
2022-12-23T06:54:42.243Z,5.76
2022-12-23T06:57:09.131Z,5.77
2022-12-23T06:59:35.823Z,5.74
2022-12-23T07:02:03.022Z,5.73
2022-12-23T07:04:29.909Z,5.74
2022-12-23T07:06:57.759Z,5.77
2022-12-23T07:09:24.577Z,5.80
2022-12-23T07:11:51.866Z,5.82
2022-12-23T07:14:18.722Z,5.81
2022-12-23T07:16:45.794Z,5.81
2022-12-23T07:19:12.783Z,5.81
2022-12-23T07:21:39.572Z,5.82
2022-12-23T07:24:06.844Z,5.83
2022-12-23T07:26:33.666Z,5.84
2022-12-23T07:29:01.608Z,5.84
2022-12-23T07:31:28.786Z,5.82
2022-12-23T07:33:55.583Z,5.81
2022-12-23T07:36:22.295Z,5.79
2022-12-23T07:38:51.334Z,5.80
2022-12-23T07:41:18.826Z,5.81
2022-12-23T07:43:46.076Z,5.83
2022-12-23T07:46:12.943Z,5.84
2022-12-23T07:48:41.326Z,5.84
2022-12-23T07:51:08.909Z,5.84
2022-12-23T07:53:35.637Z,5.84
2022-12-23T07:56:02.456Z,5.85
2022-12-23T07:58:29.335Z,5.84
2022-12-23T08:01:05.736Z,5.85
2022-12-23T08:03:32.782Z,5.88
2022-12-23T08:06:08.571Z,5.88
2022-12-23T08:08:35.472Z,5.87
2022-12-23T08:11:05.692Z,5.87
2022-12-23T08:13:36.521Z,5.86
2022-12-23T08:16:05.382Z,5.86
2022-12-23T08:18:34.823Z,5.87
2022-12-23T08:21:14.257Z,5.87
2022-12-23T08:23:43.024Z,5.84
2022-12-23T08:26:12.828Z,5.84
2022-12-23T08:28:40.710Z,5.84
2022-12-23T08:31:13.664Z,5.83
2022-12-23T08:33:43.093Z,5.84
2022-12-23T08:36:17.655Z,5.86
2022-12-23T08:38:51.513Z,5.87
2022-12-23T08:41:22.764Z,5.89
2022-12-23T08:43:49.681Z,5.87
2022-12-23T08:46:17.375Z,5.87
2022-12-23T08:48:49.185Z,5.89
2022-12-23T08:51:19.171Z,5.91
2022-12-23T08:53:47.175Z,5.94
2022-12-23T08:56:21.263Z,5.97
2022-12-23T08:58:52.169Z,5.98
2022-12-23T09:01:21.712Z,5.99
2022-12-23T09:03:48.543Z,6.01
2022-12-23T09:06:26.549Z,6.04
2022-12-23T09:08:56.075Z,6.03
2022-12-23T09:11:25.584Z,6.01
2022-12-23T09:13:53.752Z,6.03
2022-12-23T09:16:22.148Z,6.03
2022-12-23T09:18:48.896Z,6.06
2022-12-23T09:21:18.392Z,6.06
2022-12-23T09:23:45.461Z,6.06
2022-12-23T09:26:22.281Z,6.06
2022-12-23T09:28:49.595Z,6.05
2022-12-23T09:31:18.057Z,6.05
2022-12-23T09:33:50.514Z,6.05
2022-12-23T09:36:18.506Z,6.06
2022-12-23T09:38:46.082Z,6.07
2022-12-23T09:41:15.954Z,6.06
2022-12-23T09:43:42.593Z,6.07
2022-12-23T09:46:18.687Z,6.06
2022-12-23T09:48:55.689Z,6.06
2022-12-23T09:51:23.270Z,6.05
2022-12-23T09:54:04.621Z,6.04
2022-12-23T09:56:50.828Z,6.07
2022-12-23T09:59:27.126Z,6.07
2022-12-23T10:02:14.363Z,6.09
2022-12-23T10:04:53.345Z,6.10
2022-12-23T10:07:26.018Z,6.09
2022-12-23T10:09:55.795Z,6.08
2022-12-23T10:12:35.862Z,6.07
2022-12-23T10:15:19.802Z,6.07
2022-12-23T10:17:50.964Z,6.08
2022-12-23T10:20:29.569Z,6.10
2022-12-23T10:22:58.509Z,6.11
2022-12-23T10:25:36.811Z,6.12
2022-12-23T10:28:03.646Z,6.10
2022-12-23T10:30:57.455Z,6.11
2022-12-23T10:33:22.529Z,6.10
2022-12-23T10:36:13.410Z,6.13
2022-12-23T10:39:30.317Z,6.16
2022-12-23T10:42:58.313Z,6.18
2022-12-23T10:45:33.733Z,6.18
2022-12-23T10:48:14.708Z,6.18
2022-12-23T10:50:53.246Z,6.21
2022-12-23T10:53:45.978Z,6.25
2022-12-23T10:56:13.374Z,6.29
2022-12-23T10:58:50.099Z,6.33
2022-12-23T11:01:33.999Z,6.37
2022-12-23T11:04:13.192Z,6.39
2022-12-23T11:06:43.721Z,6.42
2022-12-23T11:09:18.562Z,6.43
2022-12-23T11:12:03.828Z,6.45
2022-12-23T11:14:32.309Z,6.47
2022-12-23T11:16:59.010Z,6.47
2022-12-23T11:19:26.127Z,6.48
2022-12-23T11:21:58.567Z,6.49
2022-12-23T11:24:33.647Z,6.52
2022-12-23T11:27:07.226Z,6.56
2022-12-23T11:29:39.097Z,6.57
2022-12-23T11:32:22.036Z,6.58
2022-12-23T11:34:50.326Z,6.59
2022-12-23T11:37:43.466Z,6.57
2022-12-23T11:40:21.759Z,6.57
2022-12-23T11:42:55.104Z,6.60
2022-12-23T11:45:25.654Z,6.62
2022-12-23T11:47:52.518Z,6.64
2022-12-23T11:50:30.956Z,6.65
2022-12-23T11:53:11.794Z,6.66
2022-12-23T11:55:59.599Z,6.67
2022-12-23T11:58:28.380Z,6.67
2022-12-23T12:00:58.577Z,6.74
2022-12-23T12:03:34.166Z,6.77
2022-12-23T12:06:04.537Z,6.77
2022-12-23T12:08:37.144Z,6.75
2022-12-23T12:11:14.786Z,6.74
2022-12-23T12:13:44.500Z,6.72
2022-12-23T12:16:32.868Z,6.72
2022-12-23T12:19:49.275Z,6.73
2022-12-23T12:22:43.875Z,6.72
2022-12-23T12:25:16.933Z,6.70
2022-12-23T12:27:52.043Z,6.68
2022-12-23T12:30:20.491Z,6.67
2022-12-23T12:33:00.417Z,6.68
2022-12-23T12:35:35.247Z,6.68
2022-12-23T12:38:27.099Z,6.69
2022-12-23T12:41:12.477Z,6.69
2022-12-23T12:43:50.598Z,6.69
2022-12-23T12:46:30.921Z,6.70
2022-12-23T12:49:11.538Z,6.67
2022-12-23T12:51:46.316Z,6.68
2022-12-23T12:54:34.727Z,6.69
2022-12-23T12:57:03.498Z,6.70
2022-12-23T12:59:38.310Z,6.71
2022-12-23T13:02:22.463Z,6.70
2022-12-23T13:05:31.008Z,6.68
2022-12-23T13:08:34.325Z,6.66
2022-12-23T13:11:12.671Z,6.65
2022-12-23T13:13:46.968Z,6.65
2022-12-23T13:16:19.301Z,6.67
2022-12-23T13:19:19.458Z,6.67
2022-12-23T13:22:06.731Z,6.68
2022-12-23T13:24:43.955Z,6.67
2022-12-23T13:27:18.363Z,6.68
2022-12-23T13:29:57.952Z,6.68
2022-12-23T13:32:59.255Z,6.66
2022-12-23T13:35:40.920Z,6.69
2022-12-23T13:38:15.594Z,6.72
2022-12-23T13:40:48.297Z,6.73
2022-12-23T13:43:19.903Z,6.72
2022-12-23T13:45:48.163Z,6.70
2022-12-23T13:48:24.316Z,6.69
2022-12-23T13:51:15.577Z,6.68
2022-12-23T13:53:46.861Z,6.66
2022-12-23T13:56:41.672Z,6.65
2022-12-23T13:59:10.928Z,6.68
2022-12-23T14:01:40.865Z,6.72
2022-12-23T14:04:30.705Z,6.72
2022-12-23T14:07:21.603Z,6.73
2022-12-23T14:09:56.384Z,6.73
2022-12-23T14:12:34.912Z,6.71
2022-12-23T14:15:07.600Z,6.69
2022-12-23T14:18:24.799Z,6.67
2022-12-23T14:21:09.709Z,6.62
2022-12-23T14:23:39.413Z,6.59
2022-12-23T14:26:16.803Z,6.56
2022-12-23T14:28:58.919Z,6.56
2022-12-23T14:31:40.862Z,6.58
2022-12-23T14:34:17.984Z,6.57
2022-12-23T14:37:26.690Z,6.55
2022-12-23T14:39:53.797Z,6.53
2022-12-23T14:42:42.305Z,6.52
2022-12-23T14:45:35.499Z,6.54
2022-12-23T14:48:41.149Z,6.54
2022-12-23T14:51:08.119Z,6.53
2022-12-23T14:53:54.126Z,6.51
2022-12-23T14:56:25.428Z,6.47
2022-12-23T14:58:55.009Z,6.44
2022-12-23T15:01:30.686Z,6.44
2022-12-23T15:04:01.543Z,6.42
2022-12-23T15:06:37.420Z,6.42
2022-12-23T15:09:07.031Z,6.43
2022-12-23T15:11:35.969Z,6.41
2022-12-23T15:14:09.333Z,6.40
2022-12-23T15:16:39.801Z,6.39
2022-12-23T15:19:23.239Z,6.37
2022-12-23T15:21:59.684Z,6.38
2022-12-23T15:25:15.421Z,6.35
2022-12-23T15:27:46.527Z,6.36
2022-12-23T15:30:29.654Z,6.31
2022-12-23T15:33:34.807Z,6.35
2022-12-23T15:36:11.071Z,6.36
2022-12-23T15:38:40.696Z,6.37
2022-12-23T15:50:32.192Z,6.32
2022-12-23T15:53:24.587Z,6.34
2022-12-23T16:01:00.452Z,5.99
2022-12-23T16:26:05.345Z,5.43
2022-12-23T17:20:26.664Z,6.56
2022-12-23T17:22:59.147Z,6.49
2022-12-23T17:25:26.805Z,6.40
2022-12-23T17:28:10.127Z,6.28
2022-12-23T17:31:31.630Z,6.19
2022-12-23T17:34:35.736Z,6.11
2022-12-23T17:37:19.179Z,6.10
2022-12-23T17:39:47.328Z,6.10
2022-12-23T17:42:25.834Z,6.10
2022-12-23T17:44:53.482Z,6.08
2022-12-23T17:48:02.842Z,6.07
2022-12-23T18:03:32.407Z,5.66
2022-12-23T18:13:39.186Z,5.62
2022-12-23T18:17:03.951Z,5.60
2022-12-23T18:20:14.421Z,5.51
2022-12-23T18:23:13.185Z,5.62
2022-12-23T18:26:33.495Z,5.66
2022-12-23T18:33:37.326Z,5.73
2022-12-23T18:50:18.052Z,6.45
2022-12-23T18:53:35.358Z,6.48
2022-12-23T18:56:41.194Z,6.38
2022-12-23T18:59:29.698Z,6.28
2022-12-23T19:02:53.115Z,6.18
2022-12-23T19:05:32.910Z,6.06
2022-12-23T19:09:10.349Z,5.96
2022-12-23T19:40:21.289Z,5.35
2022-12-23T19:42:58.823Z,5.32
2022-12-23T20:05:54.861Z,5.01
2022-12-23T20:13:45.947Z,4.86
2022-12-23T20:21:26.055Z,4.80
2022-12-23T20:46:33.327Z,4.44
2022-12-23T20:49:17.543Z,4.40
2022-12-23T20:57:08.952Z,4.26
2022-12-23T21:00:00.020Z,4.13
2022-12-23T21:15:37.349Z,3.85
2022-12-23T21:21:19.154Z,3.82
2022-12-23T21:21:44.289Z,3.78
2022-12-23T21:24:14.973Z,3.80
2022-12-23T21:26:55.512Z,3.78
2022-12-23T21:29:24.859Z,3.67
2022-12-23T21:32:17.248Z,3.71
2022-12-23T21:34:52.211Z,3.66
2022-12-23T21:38:09.075Z,3.66
2022-12-23T21:42:07.013Z,3.61
2022-12-23T21:45:07.459Z,3.57
2022-12-23T21:47:53.257Z,3.52
2022-12-23T21:50:54.214Z,3.47
2022-12-23T22:01:38.322Z,3.38
2022-12-23T22:08:23.344Z,3.30
2022-12-23T22:15:33.107Z,3.23
2022-12-23T22:22:29.288Z,3.22
2022-12-23T22:25:29.693Z,3.16
2022-12-23T22:28:21.304Z,3.16
2022-12-23T22:34:48.375Z,3.11
2022-12-23T22:44:13.161Z,3.05
2022-12-23T22:46:40.581Z,3.02
2022-12-23T22:49:07.551Z,2.99
2022-12-23T22:51:34.228Z,2.97
2022-12-23T22:54:45.619Z,2.95
2022-12-23T22:57:40.630Z,2.93
2022-12-23T23:00:12.468Z,2.84
2022-12-23T23:02:40.359Z,2.88
2022-12-23T23:05:12.656Z,2.87
2022-12-23T23:07:41.793Z,2.84
2022-12-23T23:10:09.414Z,2.80
2022-12-23T23:12:43.644Z,2.81
2022-12-23T23:15:25.853Z,2.79
2022-12-23T23:17:56.141Z,2.79
2022-12-23T23:20:25.509Z,2.77
2022-12-23T23:22:52.516Z,2.75
2022-12-23T23:25:30.118Z,2.73
2022-12-23T23:28:05.941Z,2.70
2022-12-23T23:31:44.413Z,2.71
2022-12-23T23:34:19.192Z,2.70
2022-12-23T23:36:46.097Z,2.69
2022-12-23T23:39:14.813Z,2.67
2022-12-23T23:41:46.502Z,2.65
2022-12-23T23:44:14.099Z,2.64
2022-12-23T23:46:45.863Z,2.60
2022-12-23T23:49:14.161Z,2.64
2022-12-23T23:51:41.607Z,2.63
2022-12-23T23:54:09.458Z,2.62
2022-12-23T23:56:39.730Z,2.60
2022-12-23T23:59:08.122Z,2.58
